Time;durP1;ratioP1;P1;durP2;ratioP2;P2;SDS_P1;SDS_P2;PMS_P1;PMS_P2;Temp;Humidity;BMP_temperature;BMP_pressure;BME280_temperature;BME280_humidity;BME280_pressure;Samples;Min_cycle;Max_cycle;Signal;HPM_P1;HPM_P2
2024/03/14 00:01:40;;;;;;;6.55;5.00;;;;;;;-146.27;82.77;43272.19;5100885;28;20047;-72
2024/03/14 00:04:05;;;;;;;6.88;5.72;;;;;;;-146.27;83.25;43276.19;5106887;28;20047;-73
2024/03/14 00:06:31;;;;;;;9.55;6.72;;;;;;;-146.27;83.53;43256.28;5101190;28;20108;-70
2024/03/14 00:08:57;;;;;;;10.68;6.10;;;;;;;-146.27;83.55;43244.34;5082455;28;20361;-72
2024/03/14 00:11:22;;;;;;;12.45;6.20;;;;;;;-146.27;83.25;43224.47;5086619;28;21641;-73
2024/03/14 00:13:47;;;;;;;6.95;6.05;;;;;;;-146.27;84.34;43272.19;5083787;28;20129;-73
2024/03/14 00:16:16;;;;;;;13.63;7.10;;;;;;;-146.27;84.28;43218.50;5089370;28;20019;-73
2024/03/14 00:18:44;;;;;;;7.90;6.13;;;;;;;-146.27;84.55;43244.34;5082930;28;20028;-71
2024/03/14 00:21:12;;;;;;;10.20;7.20;;;;;;;-146.27;85.58;43300.06;5089451;28;20032;-71
2024/03/14 00:23:37;;;;;;;11.00;7.03;;;;;;;-146.27;85.45;43226.44;5082004;28;20079;-71
2024/03/14 00:26:08;;;;;;;11.20;6.80;;;;;;;-146.27;85.95;43236.41;5091157;28;20446;-72
2024/03/14 00:28:37;;;;;;;10.40;7.03;;;;;;;-146.27;85.80;43218.50;5080729;28;20476;-72
2024/03/14 00:31:03;;;;;;;11.98;6.70;;;;;;;-146.27;85.47;43210.53;5089391;28;20040;-73
2024/03/14 00:33:30;;;;;;;10.88;6.53;;;;;;;-146.27;86.13;43222.47;5097491;28;20392;-72
2024/03/14 00:35:56;;;;;;;10.48;7.15;;;;;;;-146.27;85.88;43212.53;5088539;28;20111;-72
2024/03/14 00:38:22;;;;;;;8.43;6.43;;;;;;;-146.27;86.93;43228.44;5081122;28;20099;-73
2024/03/14 00:40:47;;;;;;;11.82;7.15;;;;;;;-146.27;86.11;43164.78;5095222;28;20037;-72
2024/03/14 00:43:14;;;;;;;9.43;6.20;;;;;;;-146.27;86.78;43230.44;5092290;28;20085;-72
2024/03/14 00:45:39;;;;;;;8.52;6.22;;;;;;;-146.27;87.24;43270.22;5090532;28;20032;-72
2024/03/14 00:48:07;;;;;;;8.60;6.60;;;;;;;-146.27;87.65;43248.34;5078242;28;20024;-73
2024/03/14 00:50:33;;;;;;;10.35;6.28;;;;;;;-146.27;87.52;43212.53;5085804;28;20032;-72
2024/03/14 00:53:02;;;;;;;8.45;6.00;;;;;;;-146.27;87.45;43222.47;5093375;28;20404;-72
2024/03/14 00:55:28;;;;;;;8.63;6.57;;;;;;;-146.27;86.70;43156.84;5100089;28;20031;-72
2024/03/14 00:57:53;;;;;;;8.45;6.05;;;;;;;-146.27;86.82;43168.75;5089138;28;20060;-71
2024/03/14 01:00:23;;;;;;;10.10;6.75;;;;;;;-146.27;87.13;43216.50;5093612;28;20476;-72
2024/03/14 01:02:49;;;;;;;8.15;6.50;;;;;;;-146.27;87.29;43164.78;5109296;28;20028;-72
2024/03/14 01:05:14;;;;;;;9.98;6.45;;;;;;;-146.27;87.33;43184.69;5103371;28;20538;-72
2024/03/14 01:07:40;;;;;;;10.20;6.45;;;;;;;-146.27;87.39;43216.50;5095247;28;20054;-72
2024/03/14 01:10:05;;;;;;;8.95;5.95;;;;;;;-146.27;87.31;43216.50;5076615;28;20480;-72
2024/03/14 01:12:31;;;;;;;8.05;5.90;;;;;;;-146.27;86.97;43168.75;5078405;28;20373;-73
2024/03/14 01:14:56;;;;;;;13.98;6.47;;;;;;;-146.27;86.56;43210.53;5079671;28;20578;-72
2024/03/14 01:17:22;;;;;;;8.00;5.82;;;;;;;-146.27;86.72;43212.53;5084284;28;20050;-73
2024/03/14 01:19:47;;;;;;;7.68;5.55;;;;;;;-146.27;86.71;43196.63;5090599;28;20107;-71
2024/03/14 01:22:13;;;;;;;7.00;5.60;;;;;;;-146.27;87.72;43224.47;5080112;28;20435;-72
2024/03/14 01:24:38;;;;;;;7.03;5.35;;;;;;;-146.27;87.18;43200.59;5081484;28;20040;-73
2024/03/14 01:27:04;;;;;;;7.47;5.50;;;;;;;-146.27;86.54;43180.69;5074672;28;20028;-72
2024/03/14 01:29:29;;;;;;;7.45;5.35;;;;;;;-146.27;87.86;43260.25;5090932;28;20456;-72
2024/03/14 01:31:54;;;;;;;7.68;5.28;;;;;;;-146.27;88.60;43284.13;5077916;27;20093;-73
2024/03/14 01:34:20;;;;;;;5.90;4.95;;;;;;;-146.27;87.35;43172.75;5088206;28;20027;-72
2024/03/14 01:36:45;;;;;;;8.10;5.82;;;;;;;-146.27;86.96;43194.63;5076158;28;20028;-77
2024/03/14 01:39:11;;;;;;;9.82;6.05;;;;;;;-146.27;86.83;43200.59;5071472;28;20054;-76
2024/03/14 01:41:36;;;;;;;13.32;6.00;;;;;;;-146.27;86.43;43188.66;5086844;28;20044;-75
2024/03/14 01:44:02;;;;;;;8.00;4.80;;;;;;;-146.27;86.75;43190.66;5076251;28;20040;-76
2024/03/14 01:46:29;;;;;;;8.68;5.40;;;;;;;-146.27;86.10;43156.84;5072935;28;20055;-76
2024/03/14 01:48:55;;;;;;;6.80;4.97;;;;;;;-146.27;87.73;43284.13;5082600;28;20086;-76
2024/03/14 01:51:22;;;;;;;8.68;5.30;;;;;;;-146.27;87.11;43258.28;5086447;28;20320;-76
2024/03/14 01:53:49;;;;;;;6.70;5.07;;;;;;;-146.27;87.93;43296.06;5080076;28;20039;-73
2024/03/14 01:56:14;;;;;;;9.80;5.50;;;;;;;-146.27;87.03;43190.66;5078584;28;20082;-77
2024/03/14 01:58:40;;;;;;;8.02;4.90;;;;;;;-146.27;86.02;43164.78;5082553;28;20034;-77
2024/03/14 02:01:05;;;;;;;6.10;5.03;;;;;;;-146.27;86.46;43256.28;5083884;28;20035;-76
2024/03/14 02:03:32;;;;;;;7.30;5.38;;;;;;;-146.27;86.83;43244.34;5076030;28;20569;-76
2024/03/14 02:06:12;;;;;;;9.00;5.15;;;;;;;-146.27;87.59;43288.13;5082932;28;20020;-77
2024/03/14 02:08:38;;;;;;;7.63;5.32;;;;;;;-146.27;87.18;43270.22;5079383;28;20032;-77
2024/03/14 02:11:04;;;;;;;6.55;5.22;;;;;;;-146.27;87.38;43262.25;5087816;28;20476;-77
2024/03/14 02:13:30;;;;;;;9.35;6.13;;;;;;;-146.27;86.87;43192.63;5095649;28;20074;-77
2024/03/14 02:15:55;;;;;;;8.23;5.53;;;;;;;-146.27;86.26;43184.69;5077591;28;20059;-77
2024/03/14 02:18:20;;;;;;;6.55;5.30;;;;;;;-146.27;86.83;43248.34;5087298;28;20028;-77
2024/03/14 02:20:46;;;;;;;6.85;5.82;;;;;;;-146.27;86.05;43226.44;5077566;28;20066;-76
2024/03/14 02:23:12;;;;;;;7.45;5.35;;;;;;;-146.27;86.70;43276.19;5078265;28;20032;-78
2024/03/14 02:25:37;;;;;;;8.68;5.90;;;;;;;-146.27;86.71;43252.31;5079826;28;20045;-77
2024/03/14 02:28:03;;;;;;;10.40;5.70;;;;;;;-146.27;85.97;43244.34;5073556;28;20056;-78
2024/03/14 02:30:28;;;;;;;7.72;5.30;;;;;;;-146.27;86.50;43246.34;5096896;28;20024;-77
2024/03/14 02:32:54;;;;;;;9.40;5.82;;;;;;;-146.27;86.58;43226.44;5086757;28;20039;-76
2024/03/14 02:35:19;;;;;;;8.90;5.57;;;;;;;-146.27;86.19;43228.44;5095942;28;20438;-77
2024/03/14 02:37:44;;;;;;;8.93;5.30;;;;;;;-146.27;86.64;43288.13;5087854;28;20034;-76
2024/03/14 02:40:11;;;;;;;7.72;4.93;;;;;;;-146.27;86.43;43220.47;5088895;28;20035;-76
2024/03/14 02:42:37;;;;;;;7.60;4.80;;;;;;;-146.27;86.58;43292.09;5070467;28;20043;-76
2024/03/14 02:45:05;;;;;;;6.75;5.05;;;;;;;-146.27;86.64;43296.06;5088171;28;20032;-76
2024/03/14 02:47:31;;;;;;;9.32;5.40;;;;;;;-146.27;86.42;43240.38;5090542;28;20031;-72
2024/03/14 02:49:56;;;;;;;9.98;5.32;;;;;;;-146.27;86.62;43313.97;5078919;28;20037;-72
2024/03/14 02:52:22;;;;;;;8.45;4.85;;;;;;;-146.27;86.03;43256.28;5081599;28;20373;-72
2024/03/14 02:54:47;;;;;;;9.35;5.68;;;;;;;-146.27;86.14;43272.19;5077270;28;20651;-72
2024/03/14 02:57:13;;;;;;;7.50;5.80;;;;;;;-146.27;86.07;43288.13;5083830;28;20038;-72
2024/03/14 02:59:39;;;;;;;7.53;5.53;;;;;;;-146.27;86.80;43302.03;5086875;28;20196;-72
2024/03/14 03:02:10;;;;;;;10.63;5.35;;;;;;;-146.27;86.94;43351.75;5093043;28;20074;-72
2024/03/14 03:04:36;;;;;;;8.15;5.80;;;;;;;-146.27;86.72;43296.06;5102982;28;20390;-72
2024/03/14 03:07:05;;;;;;;8.55;5.28;;;;;;;-146.27;86.61;43335.84;5093073;28;20024;-72
2024/03/14 03:09:30;;;;;;;8.45;5.07;;;;;;;-146.27;86.60;43343.81;5088947;28;20080;-73
2024/03/14 03:11:57;;;;;;;9.77;5.70;;;;;;;-146.27;86.76;43345.81;5089664;28;20501;-71
2024/03/14 03:14:23;;;;;;;8.00;5.18;;;;;;;-146.27;86.69;43379.63;5083450;28;20015;-71
2024/03/14 03:16:49;;;;;;;6.75;5.63;;;;;;;-146.27;86.63;43375.63;5103565;28;20020;-73
2024/03/14 03:19:14;;;;;;;10.05;5.88;;;;;;;-146.27;86.49;43403.50;5080360;28;20022;-72
2024/03/14 03:21:40;;;;;;;9.00;5.55;;;;;;;-146.27;86.50;43371.66;5079728;28;20031;-72
2024/03/14 03:24:07;;;;;;;6.22;5.20;;;;;;;-146.27;86.30;43373.66;5077592;28;20035;-72
2024/03/14 03:26:33;;;;;;;7.10;5.45;;;;;;;-146.27;86.74;43411.44;5080928;28;20025;-72
2024/03/14 03:29:01;;;;;;;9.82;5.90;;;;;;;-146.27;87.24;43433.31;5080778;28;20031;-72
2024/03/14 03:31:26;;;;;;;9.05;5.80;;;;;;;-146.27;87.13;43395.53;5090118;28;20081;-72
2024/03/14 03:33:51;;;;;;;9.77;6.05;;;;;;;-146.27;88.16;43403.50;5103814;28;20032;-72
2024/03/14 03:36:17;;;;;;;9.02;6.05;;;;;;;-146.27;87.48;43391.56;5098176;28;20099;-73
2024/03/14 03:38:43;;;;;;;10.38;7.00;;;;;;;-146.27;87.34;43435.31;5099552;28;20111;-71
2024/03/14 03:41:12;;;;;;;8.70;6.30;;;;;;;-146.27;86.89;43399.50;5097645;28;20506;-72
2024/03/14 03:43:37;;;;;;;8.50;6.35;;;;;;;-146.27;87.04;43435.31;5099576;28;20023;-73
2024/03/14 03:46:06;;;;;;;9.52;5.93;;;;;;;-146.27;87.54;43463.16;5082616;28;20035;-70
2024/03/14 03:48:38;;;;;;;8.57;6.15;;;;;;;-146.27;87.26;43407.47;5091440;28;20023;-73
2024/03/14 03:51:06;;;;;;;9.73;6.65;;;;;;;-146.27;87.47;43469.13;5093726;28;20106;-72
2024/03/14 03:53:32;;;;;;;11.25;7.00;;;;;;;-146.27;87.35;43415.41;5093382;28;20491;-72
2024/03/14 03:55:58;;;;;;;9.60;7.07;;;;;;;-146.27;87.21;43459.19;5090923;28;20027;-71
2024/03/14 03:58:23;;;;;;;11.52;6.90;;;;;;;-146.27;87.26;43435.31;5080810;27;20366;-76
2024/03/14 04:00:52;;;;;;;9.55;6.60;;;;;;;-146.27;87.02;43475.09;5080835;28;20029;-77
2024/03/14 04:03:20;;;;;;;12.98;6.72;;;;;;;-146.27;87.85;43475.09;5079179;28;20085;-76
2024/03/14 04:05:45;;;;;;;11.10;6.57;;;;;;;-146.27;87.20;43489.03;5093447;28;20020;-76
2024/03/14 04:08:14;;;;;;;11.48;7.75;;;;;;;-146.27;87.46;43491.00;5081338;28;20081;-76
2024/03/14 04:10:40;;;;;;;12.10;7.72;;;;;;;-146.27;88.24;43522.84;5081929;28;20051;-76
2024/03/14 04:13:05;;;;;;;10.38;7.63;;;;;;;-146.27;88.13;43514.88;5082727;28;20438;-77
2024/03/14 04:15:31;;;;;;;11.85;7.85;;;;;;;-146.27;88.23;43502.94;5071181;28;20035;-76
2024/03/14 04:17:57;;;;;;;12.15;8.45;;;;;;;-146.27;88.12;43516.88;5078422;28;20481;-76
2024/03/14 04:20:27;;;;;;;14.18;8.18;;;;;;;-146.27;87.93;43530.81;5083272;28;20048;-77
2024/03/14 04:22:53;;;;;;;11.68;7.68;;;;;;;-146.27;87.79;43487.03;5074648;28;20125;-76
2024/03/14 04:25:20;;;;;;;12.45;7.93;;;;;;;-146.27;88.14;43524.84;5071647;28;20332;-76
2024/03/14 04:27:46;;;;;;;12.70;8.55;;;;;;;-146.27;88.65;43538.75;5093562;28;20024;-76
2024/03/14 04:30:15;;;;;;;12.02;8.35;;;;;;;-146.27;88.59;43498.97;5093659;28;20437;-76
2024/03/14 04:32:43;;;;;;;11.27;8.15;;;;;;;-146.27;88.06;43487.03;5090133;28;20024;-76
2024/03/14 04:35:10;;;;;;;12.98;9.30;;;;;;;-146.27;89.16;43578.53;5073986;28;20024;-76
2024/03/14 04:37:38;;;;;;;14.00;9.10;;;;;;;-146.27;88.94;43510.91;5086663;28;20020;-77
2024/03/14 04:40:12;;;;;;;16.65;8.57;;;;;;;-146.27;88.45;43502.94;5093962;28;20023;-77
2024/03/14 04:42:41;;;;;;;12.73;9.32;;;;;;;-146.27;88.11;43510.91;5078475;28;20564;-77
2024/03/14 04:45:11;;;;;;;11.85;8.85;;;;;;;-146.27;89.50;43598.44;5074711;28;20029;-76
2024/03/14 04:47:37;;;;;;;14.63;10.05;;;;;;;-146.27;89.40;43500.97;5078943;28;20062;-76
2024/03/14 04:50:09;;;;;;;18.95;9.82;;;;;;;-146.27;88.89;43491.00;5079009;28;20496;-76
2024/03/14 04:52:35;;;;;;;14.93;9.70;;;;;;;-146.27;89.10;43578.53;5077467;28;20562;-76
2024/03/14 04:55:05;;;;;;;14.13;10.00;;;;;;;-146.27;88.97;43532.78;5086766;28;20056;-78
2024/03/14 04:57:31;;;;;;;15.18;10.45;;;;;;;-146.27;89.04;43520.84;5086777;28;20028;-76
2024/03/14 04:59:57;;;;;;;17.23;9.95;;;;;;;-146.27;90.13;43530.81;5084351;28;20017;-76
2024/03/14 05:02:22;;;;;;;19.15;11.50;;;;;;;-146.27;89.76;43546.72;5083032;28;20073;-76
2024/03/14 05:04:47;;;;;;;19.52;12.05;;;;;;;-146.27;90.06;43550.69;5087994;28;20059;-76
2024/03/14 05:07:13;;;;;;;21.90;11.07;;;;;;;-146.27;89.86;43512.91;5076897;28;20048;-71
2024/03/14 05:09:39;;;;;;;17.63;11.98;;;;;;;-146.27;89.67;43526.81;5081060;28;20196;-73
2024/03/14 05:12:05;;;;;;;20.58;12.23;;;;;;;-146.27;90.00;43540.75;5088105;28;20488;-71
2024/03/14 05:14:31;;;;;;;19.75;13.00;;;;;;;-146.27;89.70;43516.88;5098304;28;20086;-73
2024/03/14 05:16:56;;;;;;;19.77;13.00;;;;;;;-146.27;89.33;43518.88;5082917;28;20484;-72
2024/03/14 05:19:23;;;;;;;19.85;13.75;;;;;;;-146.27;91.91;43578.53;5091518;28;20021;-72
2024/03/14 05:21:50;;;;;;;26.50;14.70;;;;;;;-146.27;91.50;43538.75;5087283;28;20379;-74
2024/03/14 05:24:16;;;;;;;20.98;12.98;;;;;;;-146.27;90.65;43479.06;5087391;28;21301;-71
2024/03/14 05:26:42;;;;;;;21.65;13.48;;;;;;;-146.27;91.69;43498.97;5080538;28;20031;-72
2024/03/14 05:29:08;;;;;;;23.38;13.88;;;;;;;-146.27;90.53;43423.38;5081300;28;20097;-72
2024/03/14 05:31:35;;;;;;;21.77;14.60;;;;;;;-146.27;89.72;43461.19;5086842;28;20486;-72
2024/03/14 05:34:01;;;;;;;24.98;14.73;;;;;;;-146.27;89.84;43487.03;5091111;28;20035;-73
2024/03/14 05:36:26;;;;;;;21.65;14.70;;;;;;;-146.27;90.21;43483.06;5087689;28;20387;-72
2024/03/14 05:38:51;;;;;;;23.73;14.57;;;;;;;-146.27;89.62;43459.19;5099016;28;20050;-71
2024/03/14 05:41:17;;;;;;;25.60;14.65;;;;;;;-146.27;90.17;43532.78;5090294;28;20016;-71
2024/03/14 05:43:45;;;;;;;24.52;15.82;;;;;;;-146.27;90.29;43459.19;5085047;28;20024;-72
2024/03/14 05:46:13;;;;;;;23.45;14.55;;;;;;;-146.27;90.37;43498.97;5082644;28;20522;-72
2024/03/14 05:48:38;;;;;;;28.35;16.20;;;;;;;-146.27;90.45;43447.25;5089144;28;20024;-72
2024/03/14 05:51:04;;;;;;;26.17;15.60;;;;;;;-146.27;90.02;43471.13;5084710;28;20357;-71
2024/03/14 05:53:31;;;;;;;23.02;14.85;;;;;;;-146.27;90.04;43465.16;5078966;28;20063;-73
2024/03/14 05:55:58;;;;;;;22.30;14.75;;;;;;;-146.27;90.10;43487.03;5080143;28;20032;-71
2024/03/14 05:58:25;;;;;;;23.27;15.05;;;;;;;-146.27;90.06;43487.03;5083048;28;20433;-73
2024/03/14 06:00:51;;;;;;;26.65;14.82;;;;;;;-146.27;90.45;43457.19;5082003;28;20039;-72
2024/03/14 06:03:16;;;;;;;27.25;15.20;;;;;;;-146.27;90.60;43475.09;5077549;28;20111;-72
2024/03/14 06:05:42;;;;;;;25.20;14.32;;;;;;;-146.27;90.30;43495.00;5089536;28;20106;-72
2024/03/14 06:08:07;;;;;;;25.52;15.52;;;;;;;-146.27;90.51;43534.78;5083890;28;20032;-71
2024/03/14 06:10:32;;;;;;;24.90;14.63;;;;;;;-146.27;91.26;43558.66;5075625;28;20107;-72
2024/03/14 06:12:58;;;;;;;23.90;15.68;;;;;;;-146.27;91.45;43485.03;5085277;28;20031;-72
2024/03/14 06:15:23;;;;;;;24.15;14.60;;;;;;;-146.27;91.62;43483.06;5089537;28;20059;-72
2024/03/14 06:17:51;;;;;;;22.60;14.60;;;;;;;-146.27;90.90;43518.88;5074044;28;20504;-76
2024/03/14 06:20:18;;;;;;;27.67;14.25;;;;;;;-146.27;90.91;43526.81;5088763;28;20051;-76
2024/03/14 06:22:44;;;;;;;28.67;15.23;;;;;;;-146.27;91.07;43504.94;5074064;28;20024;-76
2024/03/14 06:25:10;;;;;;;26.95;15.05;;;;;;;-146.27;90.80;43510.91;5090611;28;20040;-76
2024/03/14 06:27:36;;;;;;;24.70;15.38;;;;;;;-146.27;90.69;43560.63;5081842;28;20103;-77
2024/03/14 06:30:04;;;;;;;27.60;14.80;;;;;;;-146.27;90.39;43548.69;5093065;28;20036;-76
2024/03/14 06:32:30;;;;;;;23.92;14.32;;;;;;;-146.27;90.90;43604.41;5095537;28;20023;-76
2024/03/14 06:34:55;;;;;;;35.58;14.68;;;;;;;-146.27;90.91;43580.53;5087528;28;20488;-77
2024/03/14 06:37:20;;;;;;;25.30;14.35;;;;;;;-146.27;91.02;43618.31;5080147;28;20465;-77
2024/03/14 06:39:46;;;;;;;30.45;16.20;;;;;;;-146.27;90.31;43570.59;5073804;28;20032;-77
2024/03/14 06:42:11;;;;;;;22.92;14.10;;;;;;;-146.27;90.49;43668.06;5072658;28;20020;-76
2024/03/14 06:44:37;;;;;;;23.55;15.50;;;;;;;-146.27;91.57;43640.22;5079612;28;20033;-76
2024/03/14 06:47:02;;;;;;;25.85;15.07;;;;;;;-146.27;91.16;43709.84;5078085;28;20031;-76
2024/03/14 06:49:28;;;;;;;22.50;14.18;;;;;;;-146.27;91.15;43662.09;5087124;28;20028;-77
2024/03/14 06:51:53;;;;;;;23.45;14.98;;;;;;;-146.27;91.07;43685.97;5093921;28;20016;-76
2024/03/14 06:54:18;;;;;;;21.42;14.48;;;;;;;-146.27;91.65;43721.78;5093778;28;20070;-76
2024/03/14 06:56:45;;;;;;;24.00;14.80;;;;;;;-146.27;90.83;43687.97;5083567;28;20039;-76
2024/03/14 06:59:12;;;;;;;20.63;13.13;;;;;;;-146.27;91.80;43797.38;5083346;28;20051;-75
2024/03/14 07:01:38;;;;;;;22.67;13.95;;;;;;;-146.27;91.46;43713.81;5077455;28;20427;-76
2024/03/14 07:04:03;;;;;;;23.83;14.30;;;;;;;-146.27;91.82;43795.38;5093283;28;20028;-77
2024/03/14 07:06:31;;;;;;;20.23;13.52;;;;;;;-146.27;91.24;43777.47;5093760;28;20286;-76
2024/03/14 07:08:57;;;;;;;25.40;14.45;;;;;;;-146.27;91.59;43805.31;5093139;28;20492;-74
2024/03/14 07:11:26;;;;;;;20.38;13.30;;;;;;;-146.27;91.07;43803.34;5092745;28;20024;-74
2024/03/14 07:13:56;;;;;;;21.83;14.07;;;;;;;-146.27;91.30;43825.22;5091907;28;20391;-76
2024/03/14 07:16:21;;;;;;;23.55;13.98;;;;;;;-146.27;91.50;43807.31;5091767;28;20028;-75
2024/03/14 07:18:50;;;;;;;19.40;12.60;;;;;;;-146.27;91.18;43823.22;5092462;28;20093;-75
2024/03/14 07:21:17;;;;;;;20.80;13.52;;;;;;;-146.27;91.53;43823.22;5097095;28;20077;-75
2024/03/14 07:23:47;;;;;;;20.63;12.93;;;;;;;-146.27;91.07;43825.22;5087916;28;20032;-75
2024/03/14 07:26:22;;;;;;;22.83;13.45;;;;;;;-146.27;91.39;43821.25;5082990;28;20075;-75
2024/03/14 07:28:53;;;;;;;23.88;13.00;;;;;;;-146.27;90.13;43801.34;5089471;28;20448;-72
2024/03/14 07:31:18;;;;;;;22.80;13.63;;;;;;;-146.27;90.01;43773.50;5091981;28;20454;-71
2024/03/14 07:33:45;;;;;;;20.73;13.45;;;;;;;-146.27;90.66;43789.41;5091757;28;20053;-71
2024/03/14 07:36:15;;;;;;;18.65;12.75;;;;;;;-146.27;89.97;43741.66;5087280;28;20035;-72
2024/03/14 07:38:43;;;;;;;18.60;12.10;;;;;;;-146.27;89.73;43765.53;5086939;28;20034;-71
2024/03/14 07:41:09;;;;;;;20.00;12.60;;;;;;;-146.27;89.06;43725.75;5093420;28;20046;-73
2024/03/14 07:43:34;;;;;;;19.13;12.30;;;;;;;-146.27;89.71;43765.53;5090395;28;20019;-70
2024/03/14 07:46:00;;;;;;;17.42;11.43;;;;;;;-146.27;88.80;43727.75;5080926;28;20425;-73
2024/03/14 07:48:27;;;;;;;19.35;11.20;;;;;;;-146.27;89.26;43711.81;5097659;28;20108;-72
2024/03/14 07:50:52;;;;;;;17.60;11.77;;;;;;;-146.27;89.83;43773.50;5108074;28;20024;-71
2024/03/14 07:53:19;;;;;;;18.23;11.45;;;;;;;-146.27;89.89;43759.56;5111445;27;20100;-73
2024/03/14 07:55:45;;;;;;;17.90;11.25;;;;;;;-146.27;89.33;43783.44;5104609;28;20020;-72
2024/03/14 07:58:11;;;;;;;16.27;11.38;;;;;;;-146.27;88.40;43654.13;5090768;28;20103;-73
2024/03/14 08:00:37;;;;;;;16.00;10.63;;;;;;;-146.27;87.94;43741.66;5103015;28;20034;-71
2024/03/14 08:03:03;;;;;;;18.38;9.80;;;;;;;-146.27;88.19;43697.91;5104257;28;20024;-72
2024/03/14 08:05:31;;;;;;;15.95;10.77;;;;;;;-146.27;87.65;43650.16;5106201;28;20055;-72
2024/03/14 08:07:57;;;;;;;13.77;8.73;;;;;;;-146.27;87.67;43743.66;5111513;28;20016;-71
2024/03/14 08:10:23;;;;;;;12.32;9.40;;;;;;;-146.27;88.13;43753.59;5107951;28;20145;-72
2024/03/14 08:12:48;;;;;;;15.90;9.43;;;;;;;-146.27;87.88;43747.63;5111693;28;20019;-72
2024/03/14 08:15:17;;;;;;;18.40;10.65;;;;;;;-146.27;87.35;43678.00;5106464;28;20557;-71
2024/03/14 08:17:44;;;;;;;16.58;9.38;;;;;;;-146.27;87.78;43693.91;5111397;28;20552;-72
2024/03/14 08:20:15;;;;;;;13.05;8.68;;;;;;;-146.27;87.06;43610.38;5111539;28;20016;-71
2024/03/14 08:22:42;;;;;;;13.65;9.07;;;;;;;-146.27;87.86;43725.75;5111256;28;20035;-72
2024/03/14 08:25:15;;;;;;;13.43;8.63;;;;;;;-146.27;86.70;43606.38;5111170;28;20071;-72
2024/03/14 08:27:41;;;;;;;13.15;8.35;;;;;;;-146.27;86.63;43654.13;5104605;28;20023;-72
2024/03/14 08:30:10;;;;;;;12.98;7.90;;;;;;;-146.27;86.97;43697.91;5109261;28;20028;-71
2024/03/14 08:32:36;;;;;;;11.38;7.72;;;;;;;-146.27;86.83;43678.00;5086611;28;20053;-72
2024/03/14 08:35:02;;;;;;;12.10;7.32;;;;;;;-146.27;85.56;43636.22;5101087;28;20081;-72
2024/03/14 08:37:30;;;;;;;12.25;7.20;;;;;;;-146.27;85.86;43660.09;5102170;28;20483;-76
2024/03/14 08:39:55;;;;;;;12.55;7.45;;;;;;;-146.27;86.45;43678.00;5106095;27;20056;-75
2024/03/14 08:42:30;;;;;;;11.10;6.80;;;;;;;-146.27;85.30;43586.50;5106808;28;20064;-76
2024/03/14 08:44:55;;;;;;;9.73;6.95;;;;;;;-146.27;85.66;43654.13;5110476;28;20030;-76
2024/03/14 08:47:20;;;;;;;7.38;6.18;;;;;;;-146.27;85.14;43582.53;5094473;28;20615;-76
2024/03/14 08:49:47;;;;;;;12.25;6.28;;;;;;;-146.27;84.39;43626.28;5109285;28;20028;-75
2024/03/14 08:52:14;;;;;;;8.85;6.10;;;;;;;-146.27;83.83;43558.66;5099179;28;20044;-75
2024/03/14 08:54:44;;;;;;;7.57;5.57;;;;;;;-146.27;83.96;43612.34;5109555;28;20023;-75
2024/03/14 08:57:12;;;;;;;9.93;5.68;;;;;;;-146.27;82.93;43504.94;5107672;28;20069;-76
2024/03/14 08:59:39;;;;;;;6.80;5.22;;;;;;;-146.27;83.31;43638.22;5102457;28;20020;-75
2024/03/14 09:02:09;;;;;;;10.52;5.20;;;;;;;-146.27;83.15;43652.16;5095713;28;20028;-76
2024/03/14 09:04:35;;;;;;;6.57;5.30;;;;;;;-146.27;82.60;43642.19;5082401;28;20379;-76
2024/03/14 09:07:01;;;;;;;6.15;5.28;;;;;;;-146.27;82.41;43610.38;5098661;28;20039;-76
2024/03/14 09:09:34;;;;;;;7.25;4.47;;;;;;;-146.27;81.09;43530.81;5098846;28;20078;-76
2024/03/14 09:12:22;;;;;;;9.40;5.55;;;;;;;-146.27;80.76;43538.75;5091004;28;20314;-76
2024/03/14 09:14:49;;;;;;;8.00;4.90;;;;;;;-146.27;80.24;43419.41;5093994;28;20106;-76
2024/03/14 09:17:15;;;;;;;8.93;4.50;;;;;;;-146.27;79.66;43536.75;5107675;28;20028;-75
2024/03/14 09:19:40;;;;;;;11.90;5.15;;;;;;;-146.27;79.21;43465.16;5091504;28;20046;-76
2024/03/14 09:22:06;;;;;;;12.82;4.72;;;;;;;-146.27;78.46;43451.22;5102804;28;20023;-76
2024/03/14 09:24:33;;;;;;;8.48;4.30;;;;;;;-146.27;77.80;43391.56;5109808;28;20075;-75
2024/03/14 09:26:58;;;;;;;7.43;4.40;;;;;;;-146.27;77.00;43361.72;5107583;28;20027;-75
2024/03/14 09:29:23;;;;;;;6.53;4.60;;;;;;;-146.27;76.27;43439.28;5095696;28;20456;-76
2024/03/14 09:31:49;;;;;;;6.82;4.00;;;;;;;-146.27;75.85;43514.88;5084196;28;20044;-76
2024/03/14 09:34:15;;;;;;;4.93;3.40;;;;;;;-146.27;75.87;43463.16;5094601;28;20032;-76
2024/03/14 09:36:41;;;;;;;6.35;4.53;;;;;;;-146.27;75.71;43463.16;5108267;28;20028;-75
2024/03/14 09:39:18;;;;;;;6.43;4.10;;;;;;;-146.27;74.86;43387.56;5097611;28;20027;-76
2024/03/14 09:41:46;;;;;;;9.52;4.03;;;;;;;-146.27;75.65;43528.81;5091479;28;20020;-74
2024/03/14 09:44:12;;;;;;;6.32;3.90;;;;;;;-146.27;75.66;43473.09;5101773;28;20070;-74
2024/03/14 09:46:40;;;;;;;4.50;3.65;;;;;;;-146.27;74.76;43379.63;5106652;28;20498;-74
2024/03/14 09:49:16;;;;;;;5.07;3.60;;;;;;;-146.27;74.73;43397.53;5109993;28;20024;-69
2024/03/14 09:51:43;;;;;;;4.70;3.60;;;;;;;-146.27;74.05;43373.66;5110117;28;20031;-70
2024/03/14 09:54:10;;;;;;;7.07;3.67;;;;;;;-146.27;73.75;43411.44;5110014;28;20028;-74
2024/03/14 09:56:35;;;;;;;6.07;3.53;;;;;;;-146.27;73.74;43475.09;5091756;28;20028;-73
2024/03/14 09:59:01;;;;;;;5.95;4.22;;;;;;;-146.27;72.87;43258.28;5091351;28;20395;-72
2024/03/14 10:01:26;;;;;;;3.20;2.60;;;;;;;-146.27;71.35;43270.22;5086376;28;20024;-73
2024/03/14 10:03:52;;;;;;;8.15;3.08;;;;;;;-146.27;71.67;43457.19;5073627;28;20032;-73
2024/03/14 10:06:18;;;;;;;3.25;2.72;;;;;;;-146.27;71.38;43435.31;5102423;28;20090;-73
2024/03/14 10:08:53;;;;;;;3.08;2.78;;;;;;;-146.27;72.13;43502.94;5109626;28;20020;-72
2024/03/14 10:11:20;;;;;;;10.02;3.17;;;;;;;-146.27;71.17;43405.47;5108376;28;20514;-70
2024/03/14 10:13:46;;;;;;;3.78;3.13;;;;;;;-146.27;70.06;43351.75;5107714;28;20019;-70
2024/03/14 10:16:12;;;;;;;3.25;2.75;;;;;;;-146.27;70.71;43423.38;5091965;28;20024;-72
2024/03/14 10:18:39;;;;;;;5.05;2.80;;;;;;;-146.27;70.87;43399.50;5104925;28;20200;-70
2024/03/14 10:21:05;;;;;;;5.40;2.80;;;;;;;-146.27;69.72;43232.41;5094445;28;20103;-70
2024/03/14 10:23:32;;;;;;;7.85;3.45;;;;;;;-146.27;68.81;43260.25;5105303;28;20019;-69
2024/03/14 10:25:58;;;;;;;4.50;2.65;;;;;;;-146.27;68.67;43144.91;5107287;28;20044;-70
2024/03/14 10:28:28;;;;;;;4.60;2.65;;;;;;;-146.27;67.97;43385.59;5080423;28;20387;-70
2024/03/14 10:30:57;;;;;;;3.80;2.60;;;;;;;-146.27;67.66;43315.97;5089085;28;20059;-70
2024/03/14 10:33:26;;;;;;;4.13;2.47;;;;;;;-146.27;66.65;43228.44;5096615;28;20387;-70
2024/03/14 10:35:57;;;;;;;3.65;2.53;;;;;;;-146.27;66.53;43125.00;5105257;28;20103;-71
2024/03/14 10:38:25;;;;;;;6.40;2.33;;;;;;;-146.27;65.31;43053.41;5109413;28;20076;-70
2024/03/14 10:40:57;;;;;;;3.47;2.45;;;;;;;-146.27;64.21;43204.56;5108985;28;20015;-70
2024/03/14 10:43:31;;;;;;;3.40;2.10;;;;;;;-146.27;63.81;43300.06;5109593;28;20027;-70
2024/03/14 10:45:57;;;;;;;3.45;2.30;;;;;;;-146.27;63.08;43184.69;5090788;28;20028;-70
2024/03/14 10:48:23;;;;;;;3.53;2.15;;;;;;;-146.27;61.34;43130.97;5080581;28;20111;-68
2024/03/14 10:50:56;;;;;;;4.68;2.08;;;;;;;-146.27;60.93;43238.38;5090468;28;20169;-69
2024/03/14 10:53:24;;;;;;;2.10;1.75;;;;;;;-146.27;61.73;43192.63;5089900;28;20031;-69
2024/03/14 10:55:51;;;;;;;5.68;2.00;;;;;;;-146.27;60.69;43109.09;5090043;28;20035;-70
2024/03/14 10:58:19;;;;;;;3.38;1.98;;;;;;;-146.27;60.26;43089.19;5090360;28;20035;-70
2024/03/14 11:00:45;;;;;;;2.22;1.95;;;;;;;-146.27;58.93;43115.06;5092791;28;20038;-69
2024/03/14 11:03:17;;;;;;;2.72;1.77;;;;;;;-146.27;58.46;43256.28;5108086;28;20035;-69
2024/03/14 11:05:50;;;;;;;3.67;1.85;;;;;;;-146.27;58.91;43242.38;5104478;28;20517;-69
2024/03/14 11:08:20;;;;;;;5.95;2.10;;;;;;;-146.27;57.78;43152.84;5114204;28;20020;-70
2024/03/14 11:10:51;;;;;;;3.58;1.80;;;;;;;-146.27;57.25;43399.50;5099902;28;20157;-70